Time;durP1;ratioP1;P1;durP2;ratioP2;P2;SDS_P1;SDS_P2;PMS_P1;PMS_P2;Temp;Humidity;BMP_temperature;BMP_pressure;BME280_temperature;BME280_humidity;BME280_pressure;Samples;Min_cycle;Max_cycle;Signal;HPM_P1;HPM_P2
2022/03/08 00:00:15;;;;;;;11.60;7.50;;;0.00;99.90;;;;;;5013687;28;20029;-83
2022/03/08 00:02:55;;;;;;;11.98;7.90;;;0.00;99.90;;;;;;5012304;28;20041;-83
2022/03/08 00:05:24;;;;;;;10.45;7.20;;;0.00;99.90;;;;;;5033196;28;20060;-83
2022/03/08 00:07:54;;;;;;;10.73;7.35;;;-0.10;99.90;;;;;;5033916;28;20062;-83
2022/03/08 00:10:25;;;;;;;11.88;7.40;;;-0.20;99.90;;;;;;5015843;28;20053;-83
2022/03/08 00:12:54;;;;;;;9.32;7.20;;;-0.10;99.90;;;;;;5031514;28;20060;-84
2022/03/08 00:15:24;;;;;;;11.45;7.10;;;-0.20;99.90;;;;;;5031940;28;20492;-83
2022/03/08 00:17:51;;;;;;;12.55;7.70;;;-0.20;99.90;;;;;;5019848;28;20032;-83
2022/03/08 00:20:20;;;;;;;10.77;7.65;;;-0.10;99.90;;;;;;5027429;28;20041;-83
2022/03/08 00:22:46;;;;;;;11.88;7.90;;;-0.20;99.90;;;;;;5015181;28;20430;-83
2022/03/08 00:25:12;;;;;;;10.93;7.45;;;-0.20;99.90;;;;;;5030471;28;20025;-84
2022/03/08 00:27:45;;;;;;;11.65;8.13;;;-0.20;99.90;;;;;;5018027;28;20410;-84
2022/03/08 00:30:13;;;;;;;10.23;7.00;;;-0.10;99.90;;;;;;5029826;28;20075;-83
2022/03/08 00:32:49;;;;;;;13.73;7.63;;;-0.20;99.90;;;;;;5018368;28;20044;-84
2022/03/08 00:35:15;;;;;;;10.32;7.20;;;-0.30;99.90;;;;;;5031809;28;20099;-83
2022/03/08 00:37:41;;;;;;;10.95;7.70;;;-0.30;99.90;;;;;;5028444;28;20480;-83
2022/03/08 00:40:15;;;;;;;10.52;7.28;;;-0.30;99.90;;;;;;5029477;28;20106;-84
2022/03/08 00:42:41;;;;;;;9.70;7.57;;;-0.30;99.90;;;;;;5016147;28;20044;-83
2022/03/08 00:45:08;;;;;;;11.65;7.68;;;-0.30;99.90;;;;;;5016860;28;20546;-83
2022/03/08 00:47:41;;;;;;;12.38;7.93;;;-0.40;99.90;;;;;;5017036;28;20033;-84
2022/03/08 00:50:11;;;;;;;11.65;8.48;;;-0.40;99.90;;;;;;5054776;28;20044;-83
2022/03/08 00:52:45;;;;;;;14.38;8.18;;;-0.50;99.90;;;;;;5032769;28;20381;-83
2022/03/08 00:55:17;;;;;;;12.27;8.02;;;-0.50;99.90;;;;;;5027511;28;20025;-84
2022/03/08 00:57:43;;;;;;;12.07;7.63;;;-0.50;99.90;;;;;;5015889;28;20464;-83
2022/03/08 01:00:15;;;;;;;11.27;8.10;;;-0.50;99.90;;;;;;5016112;28;20040;-83
2022/03/08 01:02:41;;;;;;;11.52;7.85;;;-0.60;99.90;;;;;;5031472;28;20041;-83
2022/03/08 01:05:11;;;;;;;12.02;8.40;;;-0.60;99.90;;;;;;5029067;28;20413;-83
2022/03/08 01:07:39;;;;;;;12.98;8.50;;;-0.60;99.90;;;;;;5015257;28;20516;-84
2022/03/08 01:10:07;;;;;;;11.30;7.95;;;-0.60;99.90;;;;;;5014686;28;20504;-83
2022/03/08 01:12:33;;;;;;;12.48;8.05;;;-0.70;99.90;;;;;;5017264;28;20068;-83
2022/03/08 01:15:01;;;;;;;14.80;8.57;;;-0.70;99.90;;;;;;5015520;28;20041;-83
2022/03/08 01:17:30;;;;;;;10.73;7.65;;;-0.70;99.90;;;;;;5014739;28;20033;-84
2022/03/08 01:19:57;;;;;;;12.40;8.27;;;-0.70;99.90;;;;;;5017478;28;20041;-84
2022/03/08 01:22:28;;;;;;;11.75;8.10;;;-0.80;99.90;;;;;;5016587;28;20037;-84
2022/03/08 01:24:54;;;;;;;13.88;8.65;;;-0.80;99.90;;;;;;5015591;28;20539;-83
2022/03/08 01:27:19;;;;;;;13.52;8.00;;;-0.70;99.90;;;;;;5016256;28;20119;-83
2022/03/08 01:30:08;;;;;;;12.10;8.15;;;-0.80;99.90;;;;;;5032728;28;20450;-84
2022/03/08 01:32:37;;;;;;;14.35;9.25;;;-0.80;99.90;;;;;;5030098;28;20064;-83
2022/03/08 01:35:04;;;;;;;11.48;8.32;;;-0.90;99.90;;;;;;5016354;28;20472;-84
2022/03/08 01:37:30;;;;;;;13.70;7.95;;;-1.00;99.90;;;;;;5014416;28;20315;-83
2022/03/08 01:39:55;;;;;;;10.45;8.50;;;-1.00;99.90;;;;;;5014687;28;20408;-84
2022/03/08 01:42:28;;;;;;;14.75;9.43;;;-1.00;99.90;;;;;;5033686;28;20510;-83
2022/03/08 01:44:54;;;;;;;13.10;9.25;;;-1.10;99.90;;;;;;5019424;28;20045;-84
2022/03/08 01:47:25;;;;;;;14.73;7.93;;;-1.10;99.90;;;;;;5037624;28;20033;-83
2022/03/08 01:49:56;;;;;;;10.68;8.80;;;-1.00;99.90;;;;;;5019801;28;20051;-84
2022/03/08 01:52:23;;;;;;;13.30;8.88;;;-0.90;99.90;;;;;;5019311;28;20467;-83
2022/03/08 01:54:53;;;;;;;12.75;8.60;;;-1.00;99.90;;;;;;5038466;28;20559;-83
2022/03/08 01:57:19;;;;;;;12.07;8.40;;;-1.00;99.90;;;;;;5021828;28;20063;-84
2022/03/08 01:59:45;;;;;;;11.20;8.43;;;-0.90;99.90;;;;;;5035549;28;20029;-83
2022/03/08 02:02:14;;;;;;;13.43;9.43;;;-0.90;99.90;;;;;;5019604;28;20128;-83
2022/03/08 02:04:40;;;;;;;12.98;8.75;;;-1.00;99.90;;;;;;5032481;28;20029;-84
2022/03/08 02:07:07;;;;;;;11.68;8.48;;;-1.00;99.90;;;;;;5035375;28;20044;-84
2022/03/08 02:09:35;;;;;;;13.15;8.85;;;-1.10;99.90;;;;;;5039509;28;20117;-83
2022/03/08 02:12:06;;;;;;;13.57;8.80;;;-1.00;99.90;;;;;;5035452;28;20037;-83
2022/03/08 02:14:35;;;;;;;12.77;9.35;;;-1.10;99.90;;;;;;5036189;28;20037;-84
2022/03/08 02:17:01;;;;;;;14.82;9.70;;;-1.20;99.90;;;;;;5019639;28;20515;-84
2022/03/08 02:19:27;;;;;;;13.18;9.30;;;-1.10;99.90;;;;;;5017230;28;20037;-84
2022/03/08 02:21:54;;;;;;;15.30;9.75;;;-1.20;99.90;;;;;;5035046;28;20052;-83
2022/03/08 02:24:20;;;;;;;11.65;8.57;;;-1.10;99.90;;;;;;5021014;28;20369;-83
2022/03/08 02:26:46;;;;;;;14.77;8.63;;;-1.20;99.90;;;;;;5015950;28;20470;-84
2022/03/08 02:29:12;;;;;;;11.90;8.75;;;-1.20;99.90;;;;;;5020345;28;20045;-83
2022/03/08 02:31:41;;;;;;;13.88;9.85;;;-1.20;99.90;;;;;;5032740;28;20077;-84
2022/03/08 02:34:07;;;;;;;14.00;9.63;;;-1.20;99.90;;;;;;5036044;28;20079;-84
2022/03/08 02:36:53;;;;;;;13.57;9.55;;;-1.20;99.90;;;;;;5014384;28;20133;-83
2022/03/08 02:39:18;;;;;;;12.85;9.27;;;-1.20;99.90;;;;;;5041095;28;20037;-84
2022/03/08 02:41:47;;;;;;;12.32;9.63;;;-1.10;99.90;;;;;;5033687;28;20029;-83
2022/03/08 02:44:13;;;;;;;14.32;9.98;;;-1.20;99.90;;;;;;5019864;28;20049;-84
2022/03/08 02:46:39;;;;;;;15.18;10.20;;;-1.20;99.90;;;;;;5032086;28;20094;-84
2022/03/08 02:49:04;;;;;;;12.88;9.98;;;-1.30;99.90;;;;;;5019175;28;20408;-83
2022/03/08 02:51:30;;;;;;;16.90;10.13;;;-1.20;99.90;;;;;;5036203;28;20432;-83
2022/03/08 02:54:06;;;;;;;12.70;9.10;;;-1.20;99.90;;;;;;5018640;28;20496;-83
2022/03/08 02:56:32;;;;;;;13.40;10.15;;;-1.20;99.90;;;;;;5029189;28;20040;-83
2022/03/08 02:58:57;;;;;;;14.70;9.68;;;-1.30;99.90;;;;;;5018966;28;20029;-83
2022/03/08 03:01:23;;;;;;;13.80;10.35;;;-1.20;99.90;;;;;;5054508;28;20033;-83
2022/03/08 03:03:48;;;;;;;14.32;9.80;;;-1.30;99.90;;;;;;5033721;28;20116;-83
2022/03/08 03:06:14;;;;;;;13.95;9.80;;;-1.30;99.90;;;;;;5017477;28;20318;-83
2022/03/08 03:08:40;;;;;;;14.63;10.98;;;-1.40;99.90;;;;;;5032316;28;20060;-84
2022/03/08 03:11:09;;;;;;;16.88;10.50;;;-1.50;99.90;;;;;;5018009;28;20056;-84
2022/03/08 03:13:35;;;;;;;14.55;10.07;;;-1.30;99.90;;;;;;5018076;28;20045;-83
2022/03/08 03:16:00;;;;;;;17.50;9.85;;;-1.30;99.90;;;;;;5017439;28;20495;-84
2022/03/08 03:18:26;;;;;;;12.85;9.65;;;-1.40;99.90;;;;;;5017860;28;20048;-84
2022/03/08 03:20:51;;;;;;;14.52;10.38;;;-1.30;99.90;;;;;;5018677;28;20337;-83
2022/03/08 03:23:17;;;;;;;18.00;11.13;;;-1.40;99.90;;;;;;5034580;28;20049;-83
2022/03/08 03:25:43;;;;;;;14.43;10.75;;;-1.50;99.90;;;;;;5017804;28;20033;-84
2022/03/08 03:28:11;;;;;;;15.40;10.05;;;-1.60;99.90;;;;;;5017545;28;20045;-84
2022/03/08 03:30:37;;;;;;;16.33;11.35;;;-1.50;99.90;;;;;;5033788;28;20041;-84
2022/03/08 03:33:03;;;;;;;14.90;10.70;;;-1.60;99.90;;;;;;5020386;28;20037;-84
2022/03/08 03:35:30;;;;;;;16.35;10.57;;;-1.70;99.90;;;;;;5015060;28;20038;-83
2022/03/08 03:37:55;;;;;;;18.70;11.00;;;-1.60;99.90;;;;;;5018176;28;20425;-83
2022/03/08 03:40:21;;;;;;;16.48;11.38;;;-1.60;99.90;;;;;;5034072;28;20040;-83
2022/03/08 03:42:47;;;;;;;14.98;10.95;;;-1.60;99.90;;;;;;5033615;28;20060;-83
2022/03/08 03:45:13;;;;;;;16.33;10.65;;;-1.60;99.90;;;;;;5018566;28;20504;-84
2022/03/08 03:47:39;;;;;;;17.33;11.43;;;-1.50;99.90;;;;;;5036118;28;20030;-84
2022/03/08 03:50:07;;;;;;;13.93;11.05;;;-1.60;99.90;;;;;;5032599;28;20263;-83
2022/03/08 03:52:32;;;;;;;18.48;11.15;;;-1.60;99.90;;;;;;5032858;28;20044;-83
2022/03/08 03:54:58;;;;;;;15.70;10.93;;;-1.50;99.90;;;;;;5017325;28;20338;-83
2022/03/08 03:57:24;;;;;;;16.20;10.88;;;-1.60;99.90;;;;;;5017162;28;20115;-83
2022/03/08 03:59:49;;;;;;;18.25;11.52;;;-1.60;99.90;;;;;;5030625;28;20040;-84
2022/03/08 04:02:15;;;;;;;15.38;10.98;;;-1.60;99.90;;;;;;5034695;28;20151;-83
2022/03/08 04:04:44;;;;;;;16.48;11.35;;;-1.70;99.90;;;;;;5016884;28;20033;-84
2022/03/08 04:07:09;;;;;;;17.85;10.95;;;-1.70;99.90;;;;;;5033410;28;20048;-84
2022/03/08 04:09:35;;;;;;;16.77;11.07;;;-1.60;99.90;;;;;;5033886;28;20029;-84
2022/03/08 04:12:00;;;;;;;18.67;11.88;;;-1.70;99.90;;;;;;5017277;28;20095;-83
2022/03/08 04:14:29;;;;;;;15.93;11.30;;;-1.70;99.90;;;;;;5035025;28;20522;-84
2022/03/08 04:16:57;;;;;;;16.88;11.27;;;-1.60;99.90;;;;;;5035218;28;20058;-83
2022/03/08 04:19:23;;;;;;;17.98;12.73;;;-1.70;99.90;;;;;;5030073;28;20052;-83
2022/03/08 04:21:49;;;;;;;20.08;11.98;;;-1.70;99.90;;;;;;5033088;28;20033;-84
2022/03/08 04:24:14;;;;;;;16.42;11.90;;;-1.70;99.90;;;;;;5015581;28;20098;-83
2022/03/08 04:26:40;;;;;;;19.08;11.95;;;-1.60;99.90;;;;;;5031263;28;20103;-83
2022/03/08 04:29:05;;;;;;;17.15;11.57;;;-1.70;99.90;;;;;;5018140;28;20025;-84
2022/03/08 04:31:32;;;;;;;18.92;12.18;;;-1.70;99.90;;;;;;5031479;28;20036;-83
2022/03/08 04:33:58;;;;;;;16.95;11.63;;;-1.90;99.90;;;;;;5016582;28;20041;-84
2022/03/08 04:36:23;;;;;;;17.60;12.40;;;-1.80;99.90;;;;;;5031899;28;20477;-84
2022/03/08 04:38:49;;;;;;;17.00;11.90;;;-1.80;99.90;;;;;;5029439;28;20056;-83
2022/03/08 04:41:15;;;;;;;17.85;11.73;;;-1.70;99.90;;;;;;5032826;28;20098;-83
2022/03/08 04:43:40;;;;;;;19.27;11.73;;;-1.80;99.90;;;;;;5031689;28;20475;-83
2022/03/08 04:46:06;;;;;;;20.10;13.02;;;-1.80;99.90;;;;;;5016699;28;20041;-84
2022/03/08 04:48:32;;;;;;;18.27;12.90;;;-1.90;99.90;;;;;;5018890;28;20060;-83
2022/03/08 04:50:57;;;;;;;18.83;12.63;;;-1.90;99.90;;;;;;5032855;28;20041;-84
2022/03/08 04:53:23;;;;;;;19.80;12.82;;;-1.80;99.90;;;;;;5016614;28;20041;-84
2022/03/08 04:55:49;;;;;;;17.70;12.25;;;-1.80;99.90;;;;;;5017994;28;20051;-83
2022/03/08 04:58:14;;;;;;;19.70;12.82;;;-1.80;99.90;;;;;;5015953;28;20044;-84
2022/03/08 05:00:43;;;;;;;19.30;12.55;;;-1.90;99.90;;;;;;5015559;28;20187;-83
2022/03/08 05:03:09;;;;;;;20.73;13.00;;;-1.90;99.90;;;;;;5033195;28;20109;-84
2022/03/08 05:05:34;;;;;;;16.40;12.07;;;-2.00;99.90;;;;;;5014497;28;20041;-84
2022/03/08 05:08:00;;;;;;;20.95;12.93;;;-2.00;99.90;;;;;;5016751;28;20104;-84
2022/03/08 05:10:26;;;;;;;20.42;12.55;;;-1.90;99.90;;;;;;5015413;28;20036;-83
2022/03/08 05:12:52;;;;;;;18.52;12.38;;;-2.00;99.90;;;;;;5045135;28;20048;-83
2022/03/08 05:15:18;;;;;;;19.15;13.02;;;-1.90;99.90;;;;;;5053634;28;20033;-83
2022/03/08 05:17:47;;;;;;;20.17;13.13;;;-2.00;99.90;;;;;;5037852;28;20467;-84
2022/03/08 05:20:13;;;;;;;18.55;12.63;;;-1.90;99.90;;;;;;5015892;28;20334;-84
2022/03/08 05:22:39;;;;;;;22.05;12.13;;;-2.00;99.90;;;;;;5019238;28;20123;-83
2022/03/08 05:25:05;;;;;;;19.50;13.18;;;-1.90;99.90;;;;;;5054374;28;20120;-83
2022/03/08 05:27:31;;;;;;;22.80;13.95;;;-1.90;99.90;;;;;;5038466;28;20060;-83
2022/03/08 05:29:56;;;;;;;22.20;12.73;;;-2.00;99.90;;;;;;5021243;28;20433;-84
2022/03/08 05:32:22;;;;;;;19.83;12.98;;;-2.10;99.90;;;;;;5021427;28;20404;-83
2022/03/08 05:34:48;;;;;;;21.63;12.30;;;-2.00;99.90;;;;;;5033782;28;20064;-83
2022/03/08 05:37:13;;;;;;;19.15;13.23;;;-2.00;99.90;;;;;;5022467;28;20396;-84
2022/03/08 05:39:39;;;;;;;18.48;12.13;;;-2.00;99.90;;;;;;5018156;28;20511;-83
2022/03/08 05:42:05;;;;;;;19.75;13.48;;;-2.10;99.90;;;;;;5049447;28;20090;-83
2022/03/08 05:44:31;;;;;;;23.25;14.15;;;-2.00;99.90;;;;;;5035931;28;20056;-83
2022/03/08 05:46:56;;;;;;;19.00;12.88;;;-2.20;99.90;;;;;;5035258;28;20482;-84
2022/03/08 05:49:23;;;;;;;24.40;13.68;;;-2.20;99.90;;;;;;5020519;28;20059;-83
2022/03/08 05:51:48;;;;;;;25.40;14.25;;;-2.00;99.90;;;;;;5037458;28;20048;-83
2022/03/08 05:54:14;;;;;;;25.77;14.43;;;-2.10;99.90;;;;;;5020857;28;20377;-83
2022/03/08 05:56:40;;;;;;;23.48;14.20;;;-2.20;99.90;;;;;;5035082;28;20408;-84
2022/03/08 05:59:05;;;;;;;25.23;14.93;;;-2.10;99.90;;;;;;5018068;28;20033;-83
2022/03/08 06:01:31;;;;;;;22.88;14.40;;;-2.10;99.90;;;;;;5018394;28;20318;-83
2022/03/08 06:03:57;;;;;;;27.77;14.13;;;-2.10;99.90;;;;;;5021670;28;20044;-82
2022/03/08 06:06:22;;;;;;;23.05;14.50;;;-2.10;99.90;;;;;;5034863;28;20072;-84
2022/03/08 06:08:49;;;;;;;21.33;14.60;;;-2.20;99.90;;;;;;5034790;28;20033;-83
2022/03/08 06:11:15;;;;;;;24.13;15.02;;;-2.20;99.90;;;;;;5019450;28;20304;-84
2022/03/08 06:13:41;;;;;;;23.13;14.95;;;-2.20;99.90;;;;;;5018584;28;20101;-84
2022/03/08 06:16:07;;;;;;;26.73;14.60;;;-2.10;99.90;;;;;;5034268;28;20041;-84
2022/03/08 06:18:35;;;;;;;24.02;15.10;;;-2.10;99.90;;;;;;5030583;28;20041;-84
2022/03/08 06:21:01;;;;;;;25.95;14.90;;;-2.00;99.90;;;;;;5019429;28;20047;-84
2022/03/08 06:23:26;;;;;;;26.20;14.95;;;-1.90;99.90;;;;;;5033662;28;20033;-83
2022/03/08 06:25:52;;;;;;;25.63;15.25;;;-2.00;99.90;;;;;;5013966;28;20510;-84
2022/03/08 06:28:17;;;;;;;25.40;14.57;;;-1.90;99.90;;;;;;5033218;28;20094;-83
2022/03/08 06:30:43;;;;;;;22.08;13.70;;;-1.70;99.90;;;;;;5018936;28;20039;-83
2022/03/08 06:33:10;;;;;;;25.98;15.02;;;-1.80;99.90;;;;;;5018991;28;20059;-84
2022/03/08 06:35:35;;;;;;;26.88;15.30;;;-1.70;99.90;;;;;;5018927;28;20048;-83
2022/03/08 06:38:01;;;;;;;25.50;14.98;;;-1.80;99.90;;;;;;5033026;28;20029;-83
2022/03/08 06:40:27;;;;;;;27.77;15.63;;;-1.70;99.90;;;;;;5016301;28;20041;-84
2022/03/08 06:42:53;;;;;;;22.77;14.02;;;-1.70;99.90;;;;;;5034894;28;20063;-84
2022/03/08 06:45:18;;;;;;;22.80;14.63;;;-1.60;99.90;;;;;;5016059;28;20186;-83
2022/03/08 06:47:44;;;;;;;22.30;14.38;;;-1.60;99.90;;;;;;5017711;28;20450;-84
2022/03/08 06:50:10;;;;;;;26.45;15.00;;;-1.60;99.90;;;;;;5051243;28;20446;-83
2022/03/08 06:52:35;;;;;;;21.85;14.10;;;-1.50;99.90;;;;;;5032214;28;20033;-84
2022/03/08 06:55:25;;;;;;;24.17;13.85;;;-1.40;99.90;;;;;;5032381;28;20044;-83
2022/03/08 06:57:51;;;;;;;25.13;14.75;;;-1.30;99.90;;;;;;5015785;28;20056;-84
2022/03/08 07:00:17;;;;;;;24.27;15.38;;;-1.20;99.90;;;;;;5035662;28;20033;-83
2022/03/08 07:02:43;;;;;;;24.10;14.90;;;-1.10;99.90;;;;;;5038404;28;20032;-83
2022/03/08 07:05:10;;;;;;;24.75;15.27;;;-1.00;99.90;;;;;;5035090;28;20128;-83
2022/03/08 07:07:35;;;;;;;25.63;15.25;;;-0.90;99.90;;;;;;5036372;28;20119;-83
2022/03/08 07:10:01;;;;;;;24.60;15.05;;;-0.90;99.90;;;;;;5019063;28;20071;-83
2022/03/08 07:12:27;;;;;;;25.50;15.82;;;-0.80;99.90;;;;;;5019938;28;20303;-83
2022/03/08 07:14:53;;;;;;;23.98;14.75;;;-0.70;99.90;;;;;;5019083;28;20162;-83
2022/03/08 07:17:21;;;;;;;24.85;14.65;;;-0.60;99.90;;;;;;5052066;28;20041;-84
2022/03/08 07:19:47;;;;;;;24.23;15.18;;;-0.50;99.90;;;;;;5033912;28;20405;-83
2022/03/08 07:22:15;;;;;;;24.05;14.07;;;-0.40;99.90;;;;;;5014275;28;20029;-83
2022/03/08 07:24:41;;;;;;;24.80;15.77;;;-0.30;99.90;;;;;;5034612;28;20420;-83
2022/03/08 07:27:08;;;;;;;28.55;15.13;;;-0.20;99.90;;;;;;5035114;28;20033;-83
2022/03/08 07:29:34;;;;;;;27.33;15.40;;;0.00;99.90;;;;;;5016148;28;20045;-84
2022/03/08 07:32:00;;;;;;;21.85;14.23;;;0.00;99.90;;;;;;5017841;28;20056;-84
2022/03/08 07:34:26;;;;;;;28.58;15.68;;;0.10;99.90;;;;;;5033635;28;20413;-83
2022/03/08 07:36:51;;;;;;;23.83;14.90;;;0.20;99.90;;;;;;5036251;28;20830;-84
2022/03/08 07:39:23;;;;;;;23.92;15.35;;;0.30;99.90;;;;;;5019484;28;20745;-84
2022/03/08 07:41:48;;;;;;;24.77;14.93;;;0.50;99.90;;;;;;5031732;28;20636;-84
2022/03/08 07:44:14;;;;;;;24.13;15.55;;;0.60;99.90;;;;;;5017865;28;20440;-84
2022/03/08 07:46:40;;;;;;;24.38;14.32;;;0.70;99.90;;;;;;5036108;28;20189;-84
2022/03/08 07:49:06;;;;;;;24.83;14.00;;;0.80;99.90;;;;;;5018982;28;20826;-83
2022/03/08 07:51:31;;;;;;;22.05;14.35;;;1.00;99.90;;;;;;5018932;28;20406;-84
2022/03/08 07:54:01;;;;;;;23.60;14.82;;;1.10;99.90;;;;;;5019192;28;20436;-84
2022/03/08 07:56:26;;;;;;;20.95;13.25;;;1.30;99.90;;;;;;5051135;28;20033;-84
2022/03/08 07:58:52;;;;;;;21.30;13.55;;;1.30;99.90;;;;;;5033024;28;20118;-83
2022/03/08 08:01:25;;;;;;;23.27;14.38;;;1.40;99.90;;;;;;5017269;28;20044;-84
2022/03/08 08:03:51;;;;;;;21.35;14.07;;;1.50;99.90;;;;;;5016543;28;20482;-83
2022/03/08 08:06:17;;;;;;;21.63;13.38;;;1.80;99.90;;;;;;5032196;28;20032;-84
2022/03/08 08:08:42;;;;;;;18.77;12.63;;;1.80;99.90;;;;;;5031086;28;20094;-84
2022/03/08 08:11:08;;;;;;;20.50;14.10;;;2.00;99.90;;;;;;5034620;28;20579;-84
2022/03/08 08:13:34;;;;;;;19.25;13.00;;;2.10;99.90;;;;;;5034793;28;20048;-84
2022/03/08 08:16:03;;;;;;;19.95;12.30;;;2.20;99.90;;;;;;5026836;28;20041;-84
2022/03/08 08:18:29;;;;;;;17.23;12.57;;;2.30;99.90;;;;;;5050660;28;20162;-83
2022/03/08 08:20:54;;;;;;;17.83;12.38;;;2.50;99.90;;;;;;5016326;28;20080;-83
2022/03/08 08:23:24;;;;;;;20.65;11.93;;;2.60;99.90;;;;;;5036678;28;20492;-83
2022/03/08 08:25:52;;;;;;;17.30;12.05;;;2.80;99.90;;;;;;5013177;28;20445;-83
2022/03/08 08:28:18;;;;;;;16.60;11.70;;;2.90;99.90;;;;;;5033033;28;20115;-82
2022/03/08 08:30:44;;;;;;;18.83;11.95;;;3.00;91.60;;;;;;5033357;28;20148;-83
2022/03/08 08:33:09;;;;;;;22.60;12.65;;;3.20;76.10;;;;;;5033957;28;20045;-83
2022/03/08 08:35:35;;;;;;;16.38;12.02;;;3.30;49.20;;;;;;5033675;28;20106;-83
2022/03/08 08:38:07;;;;;;;14.38;10.65;;;3.40;8.90;;;;;;5033041;28;20047;-82
2022/03/08 08:40:35;;;;;;;14.10;10.75;;;3.60;1.90;;;;;;5014417;28;20094;-83
2022/03/08 08:43:02;;;;;;;15.88;10.80;;;3.70;1.00;;;;;;5035016;28;22215;-83
2022/03/08 08:45:27;;;;;;;15.00;10.85;;;3.80;1.00;;;;;;5032568;28;20436;-82
2022/03/08 08:47:58;;;;;;;20.80;11.02;;;3.90;1.00;;;;;;5019028;28;20120;-83
2022/03/08 08:50:24;;;;;;;15.82;10.52;;;4.00;1.00;;;;;;5032600;28;20095;-83
2022/03/08 08:52:49;;;;;;;15.73;10.98;;;4.20;1.00;;;;;;5017075;28;20041;-83
2022/03/08 08:55:15;;;;;;;16.80;11.02;;;4.30;1.00;;;;;;5047045;28;20129;-83
2022/03/08 08:57:41;;;;;;;17.10;12.20;;;4.40;1.00;;;;;;5018394;28;20029;-83
2022/03/08 09:00:08;;;;;;;15.68;10.75;;;4.50;1.00;;;;;;5015681;28;20037;-83
2022/03/08 09:02:40;;;;;;;15.57;11.35;;;4.70;1.00;;;;;;5032059;28;20040;-82
2022/03/08 09:05:09;;;;;;;17.65;11.55;;;4.80;1.00;;;;;;5033622;28;20032;-82
2022/03/08 09:07:34;;;;;;;17.50;10.55;;;4.90;1.00;;;;;;5033899;28;20060;-82
2022/03/08 09:10:02;;;;;;;12.63;10.23;;;5.00;99.90;;;;;;5032074;28;20377;-82
2022/03/08 09:12:28;;;;;;;14.40;10.75;;;5.10;99.90;;;;;;5031377;28;20040;-83
2022/03/08 09:14:54;;;;;;;14.65;10.95;;;5.10;99.90;;;;;;5016979;28;20051;-83
2022/03/08 09:17:21;;;;;;;13.60;10.40;;;5.30;99.90;;;;;;5033758;28;20136;-82
2022/03/08 09:19:48;;;;;;;12.15;9.73;;;5.40;99.90;;;;;;5014959;28;20483;-83
2022/03/08 09:22:13;;;;;;;14.95;9.90;;;5.50;99.90;;;;;;5029985;28;20059;-83
2022/03/08 09:24:42;;;;;;;13.38;9.95;;;5.60;99.90;;;;;;5017273;28;20041;-83
2022/03/08 09:27:10;;;;;;;15.70;10.02;;;5.70;99.90;;;;;;5034489;28;20114;-83
2022/03/08 09:29:42;;;;;;;13.00;10.15;;;5.80;99.90;;;;;;5018588;28;20122;-83
2022/03/08 09:32:17;;;;;;;13.20;9.43;;;5.90;99.90;;;;;;5030152;28;20049;-83
2022/03/08 09:34:43;;;;;;;12.90;9.32;;;6.10;99.90;;;;;;5017049;28;20165;-83
2022/03/08 09:37:12;;;;;;;13.70;8.35;;;6.20;77.60;;;;;;5032484;28;20044;-82
2022/03/08 09:39:38;;;;;;;11.45;8.48;;;6.20;1.00;;;;;;5015594;28;20087;-83
2022/03/08 09:42:06;;;;;;;12.07;8.50;;;6.30;99.90;;;;;;5031603;28;20531;-83
2022/03/08 09:44:32;;;;;;;10.45;8.07;;;6.50;99.90;;;;;;5015365;28;20295;-83
2022/03/08 09:46:58;;;;;;;9.75;8.05;;;6.50;99.90;;;;;;5018113;28;20309;-83
2022/03/08 09:49:25;;;;;;;10.88;8.27;;;6.50;99.90;;;;;;5013541;28;20037;-83
2022/03/08 09:51:52;;;;;;;10.77;7.97;;;6.70;99.90;;;;;;5033079;28;20212;-83
2022/03/08 09:54:18;;;;;;;14.38;8.35;;;6.70;99.90;;;;;;5016375;28;20037;-83
2022/03/08 09:56:44;;;;;;;14.88;8.52;;;6.90;99.90;;;;;;5028331;28;20043;-83
2022/03/08 09:59:09;;;;;;;12.75;8.65;;;6.80;99.90;;;;;;5015323;28;20033;-84
2022/03/08 10:01:36;;;;;;;10.15;8.07;;;6.80;99.90;;;;;;5033385;28;20045;-83
2022/03/08 10:04:02;;;;;;;10.75;7.78;;;7.10;99.90;;;;;;5019937;28;20499;-83
2022/03/08 10:06:41;;;;;;;11.68;8.15;;;7.20;99.90;;;;;;5020572;28;20043;-83
2022/03/08 10:09:19;;;;;;;14.07;8.40;;;7.40;99.90;;;;;;5019621;28;20138;-83
2022/03/08 10:11:58;;;;;;;14.02;8.13;;;7.30;99.90;;;;;;5017073;28;21389;-83
2022/03/08 10:14:37;;;;;;;10.85;8.15;;;7.30;90.00;;;;;;5020646;28;20059;-83
2022/03/08 10:17:04;;;;;;;13.65;8.63;;;7.50;99.90;;;;;;5037362;28;20147;-83
2022/03/08 10:19:30;;;;;;;9.98;6.90;;;7.60;67.10;;;;;;5019070;28;20399;-82
2022/03/08 10:21:57;;;;;;;12.90;8.45;;;7.70;10.90;;;;;;5020956;28;20037;-83
2022/03/08 10:24:28;;;;;;;13.02;8.73;;;7.80;61.80;;;;;;5036572;28;20049;-83
2022/03/08 10:26:57;;;;;;;13.15;8.35;;;8.10;99.90;;;;;;5020354;28;20248;-83
2022/03/08 10:29:28;;;;;;;10.52;7.88;;;8.10;1.00;;;;;;5036373;28;20108;-83
2022/03/08 10:32:22;;;;;;;8.70;7.53;;;8.20;99.90;;;;;;5019354;28;20568;-83
2022/03/08 10:34:54;;;;;;;8.73;7.38;;;8.40;89.60;;;;;;5015315;28;20112;-83
2022/03/08 10:37:23;;;;;;;11.63;6.57;;;8.60;24.30;;;;;;5019659;28;20041;-83
2022/03/08 10:40:04;;;;;;;9.73;6.60;;;8.70;1.00;;;;;;5019076;28;20028;-83
2022/03/08 10:42:36;;;;;;;;;;;8.80;1.00;;;;;;5033170;28;20049;-83
2022/03/08 10:45:18;;;;;;;9.98;6.63;;;8.80;1.00;;;;;;5053829;28;19920;-83
2022/03/08 10:47:50;;;;;;;8.85;6.75;;;8.90;1.00;;;;;;5018998;28;20540;-83
2022/03/08 10:50:18;;;;;;;7.60;6.60;;;9.00;1.00;;;;;;5018953;28;20302;-83
2022/03/08 10:52:45;;;;;;;8.10;6.13;;;9.00;1.00;;;;;;5035320;28;20048;-83
2022/03/08 10:55:19;;;;;;;8.10;6.53;;;9.10;1.00;;;;;;5035507;28;20037;-83
2022/03/08 10:57:53;;;;;;;7.40;6.40;;;9.00;1.00;;;;;;5020893;28;20037;-83
2022/03/08 11:00:33;;;;;;;7.38;6.35;;;9.20;1.00;;;;;;5033210;28;20449;-83
2022/03/08 11:03:07;;;;;;;11.20;7.05;;;9.40;1.00;;;;;;5020622;28;20112;-83
2022/03/08 11:05:43;;;;;;;11.50;7.18;;;9.40;1.00;;;;;;5014150;28;20446;-83
2022/03/08 11:08:12;;;;;;;11.60;7.03;;;9.40;1.00;;;;;;5016612;28;20283;-84
2022/03/08 11:10:39;;;;;;;8.38;6.70;;;9.70;1.00;;;;;;5031557;28;20102;-83
2022/03/08 11:13:06;;;;;;;8.38;6.60;;;9.60;99.90;;;;;;5036057;28;20048;-83
2022/03/08 11:15:35;;;;;;;8.07;6.68;;;9.60;1.00;;;;;;5038009;28;20040;-83
2022/03/08 11:18:03;;;;;;;7.88;6.47;;;9.60;1.00;;;;;;5017780;28;20047;-83
2022/03/08 11:20:29;;;;;;;7.95;6.93;;;9.70;99.90;;;;;;5032806;28;20110;-84
2022/03/08 11:23:05;;;;;;;11.82;7.53;;;9.80;1.00;;;;;;5033009;28;20132;-83
2022/03/08 11:25:43;;;;;;;8.73;7.07;;;9.90;1.00;;;;;;5019871;28;20484;-83
2022/03/08 11:28:13;;;;;;;13.20;6.65;;;10.00;1.00;;;;;;5035905;28;20562;-83
2022/03/08 11:30:45;;;;;;;9.95;7.03;;;10.00;1.00;;;;;;5035296;28;20075;-83
2022/03/08 11:33:32;;;;;;;10.57;6.35;;;10.10;1.00;;;;;;5018190;28;20499;-83
2022/03/08 11:36:00;;;;;;;7.72;6.65;;;10.20;99.90;;;;;;5036292;28;20029;-83
2022/03/08 11:38:26;;;;;;;8.32;6.75;;;10.40;1.00;;;;;;5032175;28;20087;-83
2022/03/08 11:40:54;;;;;;;9.70;6.00;;;10.00;99.90;;;;;;5015587;28;20158;-83
2022/03/08 11:43:37;;;;;;;7.88;6.53;;;10.10;99.90;;;;;;5017464;28;20107;-82
2022/03/08 11:46:13;;;;;;;10.23;6.72;;;10.30;99.90;;;;;;5019493;28;20049;-83
2022/03/08 11:49:09;;;;;;;11.10;6.00;;;10.40;99.90;;;;;;5032200;28;20113;-84
2022/03/08 11:51:35;;;;;;;13.02;6.30;;;10.40;99.90;;;;;;5018214;28;20044;-83
2022/03/08 11:54:09;;;;;;;8.95;5.75;;;10.50;99.90;;;;;;5033481;28;20101;-84
2022/03/08 11:56:47;;;;;;;6.28;4.97;;;10.50;99.90;;;;;;5025805;28;20033;-83
2022/03/08 11:59:13;;;;;;;5.40;4.60;;;10.40;99.90;;;;;;5031397;28;20044;-83
2022/03/08 12:01:39;;;;;;;6.97;5.30;;;10.60;99.90;;;;;;5030558;28;20036;-83
2022/03/08 12:04:13;;;;;;;5.13;4.63;;;10.60;99.90;;;;;;5034552;28;20034;-83
2022/03/08 12:06:47;;;;;;;6.33;4.87;;;10.80;99.90;;;;;;5033322;28;20090;-83
2022/03/08 12:09:18;;;;;;;8.38;4.78;;;10.80;99.90;;;;;;5016643;28;20044;-83
2022/03/08 12:12:02;;;;;;;5.65;4.47;;;10.90;99.90;;;;;;5016590;28;20488;-83
2022/03/08 12:14:30;;;;;;;4.88;4.13;;;10.90;99.90;;;;;;5033318;28;20041;-83
2022/03/08 12:17:19;;;;;;;9.07;4.20;;;10.80;99.90;;;;;;5035729;28;20136;-83
2022/03/08 12:19:52;;;;;;;6.80;4.32;;;11.00;99.90;;;;;;5022656;28;20366;-83
2022/03/08 12:22:24;;;;;;;5.75;4.45;;;11.10;99.90;;;;;;5016505;28;20024;-84
2022/03/08 12:24:53;;;;;;;9.90;5.53;;;11.10;99.90;;;;;;5014930;28;20396;-83
2022/03/08 12:27:29;;;;;;;7.53;4.63;;;11.30;99.90;;;;;;5018770;28;20138;-83
2022/03/08 12:29:59;;;;;;;6.22;4.43;;;11.20;99.90;;;;;;5034921;28;20037;-84
2022/03/08 12:32:47;;;;;;;7.93;4.60;;;11.10;99.90;;;;;;5017615;28;20098;-84
2022/03/08 12:35:25;;;;;;;11.32;5.10;;;11.20;99.90;;;;;;5017236;28;20052;-83
2022/03/08 12:37:55;;;;;;;9.45;5.30;;;11.00;99.90;;;;;;5017759;28;20109;-83
2022/03/08 12:40:28;;;;;;;12.88;5.25;;;11.30;99.90;;;;;;5017270;28;20343;-84
2022/03/08 12:43:07;;;;;;;6.30;4.60;;;11.40;99.90;;;;;;5018396;28;20152;-84